Time;durP1;ratioP1;P1;durP2;ratioP2;P2;SDS_P1;SDS_P2;PMS_P1;PMS_P2;Temp;Humidity;BMP_temperature;BMP_pressure;BME280_temperature;BME280_humidity;BME280_pressure;Samples;Min_cycle;Max_cycle;Signal;HPM_P1;HPM_P2
2023/12/02 00:01:43;;;;;;;54.33;26.98;;;;;;;;;;4977926;28;25094;-73
2023/12/02 00:04:12;;;;;;;54.75;28.20;;;;;;;;;;4979459;28;25146;-73
2023/12/02 00:06:38;;;;;;;59.25;28.38;;;;;;;;;;4984323;28;25155;-72
2023/12/02 00:09:04;;;;;;;49.80;26.80;;;;;;;;;;4984244;28;25066;-73
2023/12/02 00:11:30;;;;;;;57.20;27.85;;;;;;;;;;4980258;28;25064;-71
2023/12/02 00:13:56;;;;;;;56.00;27.65;;;;;;;;;;4986044;28;25149;-71
2023/12/02 00:16:22;;;;;;;57.38;28.75;;;;;;;;;;4987591;28;25133;-72
2023/12/02 00:18:48;;;;;;;66.40;31.35;;;;;;;;;;4987348;28;25050;-71
2023/12/02 00:21:13;;;;;;;54.05;26.23;;;;;;;;;;4987257;28;25090;-72
2023/12/02 00:23:39;;;;;;;56.47;28.88;;;;;;;;;;4985309;28;25054;-72
2023/12/02 00:26:07;;;;;;;53.63;28.65;;;;;;;;;;4986161;28;25144;-71
2023/12/02 00:28:33;;;;;;;60.83;29.70;;;;;;;;;;4982660;28;25106;-72
2023/12/02 00:30:59;;;;;;;57.88;29.10;;;;;;;;;;4984146;28;25049;-71
2023/12/02 00:33:25;;;;;;;55.90;29.13;;;;;;;;;;4985614;28;25052;-72
2023/12/02 00:35:51;;;;;;;51.25;28.35;;;;;;;;;;4984441;28;25085;-72
2023/12/02 00:38:17;;;;;;;57.97;28.98;;;;;;;;;;4985847;28;25072;-72
2023/12/02 00:40:43;;;;;;;57.13;28.20;;;;;;;;;;4990575;28;25127;-72
2023/12/02 00:43:09;;;;;;;55.95;29.13;;;;;;;;;;4983840;28;25160;-73
2023/12/02 00:45:35;;;;;;;54.25;29.17;;;;;;;;;;4986829;28;25069;-72
2023/12/02 00:48:01;;;;;;;50.08;28.25;;;;;;;;;;4987631;28;25081;-73
2023/12/02 00:50:27;;;;;;;58.63;28.20;;;;;;;;;;4988255;28;25080;-72
2023/12/02 00:52:53;;;;;;;59.88;28.58;;;;;;;;;;4986401;28;25115;-72
2023/12/02 00:55:19;;;;;;;61.58;30.45;;;;;;;;;;4986131;28;25053;-72
2023/12/02 00:57:45;;;;;;;54.15;26.85;;;;;;;;;;4985417;28;25057;-72
2023/12/02 01:00:11;;;;;;;58.83;30.33;;;;;;;;;;4985796;28;25050;-71
2023/12/02 01:02:37;;;;;;;55.35;28.83;;;;;;;;;;4984373;28;25156;-73
2023/12/02 01:05:03;;;;;;;55.33;28.85;;;;;;;;;;4985148;28;25077;-71
2023/12/02 01:07:29;;;;;;;62.53;30.80;;;;;;;;;;4984071;28;25159;-74
2023/12/02 01:09:55;;;;;;;59.05;31.00;;;;;;;;;;4986342;28;25079;-72
2023/12/02 01:12:21;;;;;;;62.20;29.65;;;;;;;;;;4984770;28;25099;-71
2023/12/02 01:14:47;;;;;;;56.70;29.27;;;;;;;;;;4990588;28;25151;-71
2023/12/02 01:17:13;;;;;;;57.50;30.38;;;;;;;;;;4988164;28;25130;-72
2023/12/02 01:19:39;;;;;;;64.78;30.55;;;;;;;;;;4982024;28;25158;-73
2023/12/02 01:22:05;;;;;;;66.05;30.77;;;;;;;;;;4987552;28;25074;-72
2023/12/02 01:24:31;;;;;;;62.90;30.30;;;;;;;;;;4989602;28;25066;-72
2023/12/02 01:26:57;;;;;;;59.88;30.20;;;;;;;;;;4989380;28;25080;-72
2023/12/02 01:29:23;;;;;;;59.95;29.17;;;;;;;;;;4985551;28;25078;-71
2023/12/02 01:31:49;;;;;;;62.75;29.88;;;;;;;;;;4993530;28;25139;-72
2023/12/02 01:34:15;;;;;;;56.88;27.83;;;;;;;;;;4989236;28;25084;-72
2023/12/02 01:36:41;;;;;;;57.47;27.83;;;;;;;;;;4990678;28;25101;-71
2023/12/02 01:39:07;;;;;;;53.13;29.45;;;;;;;;;;4989851;28;25128;-71
2023/12/02 01:41:33;;;;;;;52.20;27.60;;;;;;;;;;4991360;28;25110;-71
2023/12/02 01:43:59;;;;;;;54.55;29.30;;;;;;;;;;4990472;28;25097;-72
2023/12/02 01:46:26;;;;;;;58.15;30.73;;;;;;;;;;4988828;28;25157;-71
2023/12/02 01:48:52;;;;;;;57.20;29.17;;;;;;;;;;4990008;28;25126;-72
2023/12/02 01:51:18;;;;;;;60.70;28.83;;;;;;;;;;4987498;28;25141;-71
2023/12/02 01:53:44;;;;;;;57.38;29.50;;;;;;;;;;4990642;28;25067;-71
2023/12/02 01:56:10;;;;;;;59.08;30.73;;;;;;;;;;4990613;28;25058;-71
2023/12/02 01:58:37;;;;;;;61.88;30.48;;;;;;;;;;4988878;28;25061;-72
2023/12/02 02:01:04;;;;;;;61.22;30.38;;;;;;;;;;4986566;28;25127;-71
2023/12/02 02:03:30;;;;;;;60.95;30.55;;;;;;;;;;4983605;28;25079;-69
2023/12/02 02:05:56;;;;;;;60.85;31.77;;;;;;;;;;4989042;28;25057;-73
2023/12/02 02:08:22;;;;;;;63.85;31.17;;;;;;;;;;4987591;28;25147;-71
2023/12/02 02:10:54;;;;;;;60.80;30.98;;;;;;;;;;4983253;28;25060;-71
2023/12/02 02:13:21;;;;;;;65.32;31.73;;;;;;;;;;4982016;28;25156;-71
2023/12/02 02:15:46;;;;;;;63.10;33.33;;;;;;;;;;4985782;28;25077;-71
2023/12/02 02:18:12;;;;;;;62.40;31.52;;;;;;;;;;4982385;28;25056;-71
2023/12/02 02:20:38;;;;;;;60.70;31.75;;;;;;;;;;4987714;28;25056;-71
2023/12/02 02:23:04;;;;;;;67.80;31.33;;;;;;;;;;4983377;28;25116;-72
2023/12/02 02:25:30;;;;;;;65.03;30.33;;;;;;;;;;4986428;28;25060;-71
2023/12/02 02:27:56;;;;;;;64.25;32.22;;;;;;;;;;4981054;28;25065;-71
2023/12/02 02:30:24;;;;;;;63.85;30.80;;;;;;;;;;4988353;28;25069;-71
2023/12/02 02:32:50;;;;;;;63.60;31.80;;;;;;;;;;4980366;28;25074;-71
2023/12/02 02:35:16;;;;;;;63.53;31.35;;;;;;;;;;4979324;28;25141;-71
2023/12/02 02:37:43;;;;;;;59.75;30.50;;;;;;;;;;4983703;28;25088;-71
2023/12/02 02:40:09;;;;;;;63.97;31.60;;;;;;;;;;4993557;28;25077;-72
2023/12/02 02:42:35;;;;;;;65.72;32.05;;;;;;;;;;4979814;28;25062;-72
2023/12/02 02:45:01;;;;;;;66.13;30.55;;;;;;;;;;4985608;28;25070;-71
2023/12/02 02:47:27;;;;;;;65.05;32.30;;;;;;;;;;4978792;28;25114;-71
2023/12/02 02:49:53;;;;;;;67.60;32.58;;;;;;;;;;4980242;28;25078;-72
2023/12/02 02:52:19;;;;;;;67.20;32.85;;;;;;;;;;4974312;28;25054;-70
2023/12/02 02:54:45;;;;;;;63.72;31.85;;;;;;;;;;4975398;28;25155;-71
2023/12/02 02:57:11;;;;;;;65.85;33.13;;;;;;;;;;4976811;28;25065;-73
2023/12/02 02:59:37;;;;;;;63.90;32.97;;;;;;;;;;4975764;28;25070;-71
2023/12/02 03:02:03;;;;;;;65.03;32.72;;;;;;;;;;4982934;28;25068;-71
2023/12/02 03:04:29;;;;;;;63.33;30.38;;;;;;;;;;4986575;28;25056;-73
2023/12/02 03:06:55;;;;;;;61.90;31.75;;;;;;;;;;4974977;28;25152;-72
2023/12/02 03:09:21;;;;;;;61.70;31.15;;;;;;;;;;4981863;28;25081;-71
2023/12/02 03:11:48;;;;;;;68.65;32.97;;;;;;;;;;4982465;28;25072;-72
2023/12/02 03:14:14;;;;;;;67.63;31.92;;;;;;;;;;4987209;28;25076;-71
2023/12/02 03:16:40;;;;;;;69.57;33.80;;;;;;;;;;4985423;28;25070;-71
2023/12/02 03:19:06;;;;;;;63.22;32.13;;;;;;;;;;4986343;28;25057;-70
2023/12/02 03:21:32;;;;;;;70.53;33.40;;;;;;;;;;4979381;28;25094;-72
2023/12/02 03:23:58;;;;;;;66.88;32.28;;;;;;;;;;4973889;28;25073;-72
2023/12/02 03:26:24;;;;;;;70.05;32.78;;;;;;;;;;4984876;28;25073;-72
2023/12/02 03:28:50;;;;;;;69.35;34.42;;;;;;;;;;4988509;28;25065;-70
2023/12/02 03:31:16;;;;;;;66.47;32.92;;;;;;;;;;4981598;28;25144;-70
2023/12/02 03:33:42;;;;;;;72.10;34.80;;;;;;;;;;4982697;28;25151;-71
2023/12/02 03:36:08;;;;;;;72.00;33.78;;;;;;;;;;4980845;28;25069;-72
2023/12/02 03:38:34;;;;;;;68.07;33.90;;;;;;;;;;4987723;28;25083;-71
2023/12/02 03:41:02;;;;;;;67.20;34.55;;;;;;;;;;4987905;28;25076;-70
2023/12/02 03:43:28;;;;;;;78.53;35.90;;;;;;;;;;4985228;28;25096;-71
2023/12/02 03:45:55;;;;;;;67.38;32.95;;;;;;;;;;4982281;28;25068;-71
2023/12/02 03:48:21;;;;;;;60.30;31.63;;;;;;;;;;4979092;28;25142;-72
2023/12/02 03:50:47;;;;;;;66.55;34.60;;;;;;;;;;4983083;28;25092;-70
2023/12/02 03:53:13;;;;;;;70.13;36.28;;;;;;;;;;4988579;28;25125;-71
2023/12/02 03:55:39;;;;;;;68.78;35.00;;;;;;;;;;4979216;28;25063;-70
2023/12/02 03:58:05;;;;;;;73.03;34.40;;;;;;;;;;4979382;28;25063;-72
2023/12/02 04:00:31;;;;;;;71.38;34.67;;;;;;;;;;4982103;28;25062;-71
2023/12/02 04:02:59;;;;;;;70.78;33.10;;;;;;;;;;4979955;28;25072;-70
2023/12/02 04:05:25;;;;;;;70.88;33.97;;;;;;;;;;4979192;28;25153;-70
2023/12/02 04:07:51;;;;;;;68.25;33.53;;;;;;;;;;4988971;28;25073;-71
2023/12/02 04:10:17;;;;;;;74.80;35.33;;;;;;;;;;4989786;28;25068;-71
2023/12/02 04:12:43;;;;;;;74.15;36.20;;;;;;;;;;4985939;28;25068;-72
2023/12/02 04:15:10;;;;;;;70.60;32.50;;;;;;;;;;4983140;28;25089;-70
2023/12/02 04:17:36;;;;;;;65.53;33.33;;;;;;;;;;4985517;28;25147;-72
2023/12/02 04:20:08;;;;;;;68.70;33.90;;;;;;;;;;4983437;28;25075;-71
2023/12/02 04:22:34;;;;;;;;;;;;;;;;;;4986627;28;25096;-71
2023/12/02 04:25:00;;;;;;;53.13;28.45;;;;;;;;;;4985703;28;25083;-70
2023/12/02 04:27:26;;;;;;;70.22;34.42;;;;;;;;;;4984222;28;25077;-71
2023/12/02 04:29:52;;;;;;;71.00;34.13;;;;;;;;;;4977846;28;25068;-72
2023/12/02 04:32:18;;;;;;;64.38;31.95;;;;;;;;;;4984587;28;25074;-71
2023/12/02 04:34:44;;;;;;;69.03;32.85;;;;;;;;;;4985360;28;25088;-70
2023/12/02 04:37:10;;;;;;;70.00;34.35;;;;;;;;;;4986526;28;25069;-70
2023/12/02 04:39:36;;;;;;;75.10;35.33;;;;;;;;;;4988444;28;25088;-72
2023/12/02 04:42:02;;;;;;;76.38;35.05;;;;;;;;;;4988007;28;25098;-72
2023/12/02 04:44:28;;;;;;;70.05;34.75;;;;;;;;;;4987546;28;25054;-71
2023/12/02 04:46:54;;;;;;;79.85;37.55;;;;;;;;;;4985469;28;25056;-71
2023/12/02 04:49:20;;;;;;;72.22;34.67;;;;;;;;;;4992016;28;25059;-70
2023/12/02 04:51:46;;;;;;;72.47;35.00;;;;;;;;;;4989484;28;25093;-70
2023/12/02 04:54:11;;;;;;;73.53;35.00;;;;;;;;;;4988789;28;25145;-71
2023/12/02 04:56:37;;;;;;;69.97;34.88;;;;;;;;;;4989092;28;25070;-72
2023/12/02 04:59:04;;;;;;;70.25;34.95;;;;;;;;;;4986842;28;25050;-71
2023/12/02 05:01:29;;;;;;;70.30;33.13;;;;;;;;;;4990124;28;25074;-71
2023/12/02 05:03:55;;;;;;;72.80;35.58;;;;;;;;;;4990671;28;25107;-70
2023/12/02 05:06:21;;;;;;;76.28;36.33;;;;;;;;;;4989126;28;25067;-70
2023/12/02 05:08:47;;;;;;;73.80;34.35;;;;;;;;;;4988629;28;25081;-72
2023/12/02 05:11:20;;;;;;;74.10;36.17;;;;;;;;;;4990562;28;25072;-70
2023/12/02 05:13:46;;;;;;;72.60;34.83;;;;;;;;;;4988158;28;25111;-71
2023/12/02 05:16:13;;;;;;;74.32;36.25;;;;;;;;;;4984182;28;25066;-71
2023/12/02 05:18:42;;;;;;;70.90;35.45;;;;;;;;;;4989357;28;25063;-70
2023/12/02 05:21:09;;;;;;;80.30;36.03;;;;;;;;;;4988954;28;25078;-71
2023/12/02 05:23:35;;;;;;;70.93;35.13;;;;;;;;;;4988247;28;25141;-71
2023/12/02 05:26:01;;;;;;;79.97;35.75;;;;;;;;;;4987267;28;25092;-72
2023/12/02 05:28:28;;;;;;;72.47;32.92;;;;;;;;;;4989883;28;25135;-70
2023/12/02 05:30:54;;;;;;;82.47;36.00;;;;;;;;;;4984933;28;25129;-71
2023/12/02 05:33:22;;;;;;;67.57;32.55;;;;;;;;;;4986633;28;25067;-72
2023/12/02 05:35:48;;;;;;;67.88;33.67;;;;;;;;;;4989986;28;25132;-73
2023/12/02 05:38:14;;;;;;;82.00;35.55;;;;;;;;;;4989896;28;25060;-71
2023/12/02 05:40:40;;;;;;;78.10;36.28;;;;;;;;;;4991939;28;25072;-72
2023/12/02 05:43:06;;;;;;;73.78;35.80;;;;;;;;;;4986525;28;25079;-72
2023/12/02 05:45:32;;;;;;;76.88;34.53;;;;;;;;;;4989125;28;25129;-71
2023/12/02 05:47:58;;;;;;;74.05;36.20;;;;;;;;;;4983159;28;25083;-71
2023/12/02 05:50:24;;;;;;;74.82;34.55;;;;;;;;;;4989022;28;25104;-71
2023/12/02 05:52:50;;;;;;;76.90;36.38;;;;;;;;;;4987796;28;25058;-71
2023/12/02 05:55:16;;;;;;;80.80;36.78;;;;;;;;;;4983422;28;25089;-71
2023/12/02 05:57:46;;;;;;;77.05;35.65;;;;;;;;;;4987934;28;25069;-71
2023/12/02 06:00:17;;;;;;;84.57;39.13;;;;;;;;;;4986362;28;25593;-73
2023/12/02 06:02:42;;;;;;;87.07;38.03;;;;;;;;;;4988735;28;25105;-71
2023/12/02 06:05:09;;;;;;;87.60;37.05;;;;;;;;;;4988740;28;25098;-71
2023/12/02 06:07:35;;;;;;;83.82;36.80;;;;;;;;;;4985608;28;25081;-72
2023/12/02 06:10:01;;;;;;;80.30;36.33;;;;;;;;;;4987902;28;25077;-72
2023/12/02 06:12:27;;;;;;;76.03;35.90;;;;;;;;;;4989402;28;25082;-72
2023/12/02 06:14:53;;;;;;;82.25;37.97;;;;;;;;;;4982372;28;25053;-72
2023/12/02 06:17:19;;;;;;;80.28;37.35;;;;;;;;;;4989137;28;25075;-73
2023/12/02 06:19:45;;;;;;;74.78;35.28;;;;;;;;;;4991526;28;25070;-71
2023/12/02 06:22:11;;;;;;;78.85;35.45;;;;;;;;;;4989804;28;25084;-71
2023/12/02 06:24:36;;;;;;;79.32;36.47;;;;;;;;;;4987722;28;25056;-70
2023/12/02 06:27:03;;;;;;;84.50;38.70;;;;;;;;;;4985517;28;25070;-71
2023/12/02 06:29:29;;;;;;;85.80;38.83;;;;;;;;;;4988903;28;25061;-71
2023/12/02 06:31:55;;;;;;;79.75;38.35;;;;;;;;;;4990317;28;25055;-72
2023/12/02 06:34:21;;;;;;;79.85;37.95;;;;;;;;;;4983739;28;25063;-70
2023/12/02 06:36:47;;;;;;;90.15;39.47;;;;;;;;;;4989656;28;25081;-71
2023/12/02 06:39:13;;;;;;;79.45;36.42;;;;;;;;;;4986214;28;25072;-71
2023/12/02 06:41:42;;;;;;;79.53;36.28;;;;;;;;;;4987216;28;25065;-72
2023/12/02 06:44:09;;;;;;;79.85;36.33;;;;;;;;;;4987605;28;25060;-71
2023/12/02 06:46:35;;;;;;;80.68;36.00;;;;;;;;;;4984665;28;25114;-71
2023/12/02 06:49:01;;;;;;;74.30;34.80;;;;;;;;;;4980207;28;25096;-71
2023/12/02 06:51:30;;;;;;;78.55;37.08;;;;;;;;;;4983239;28;25081;-71
2023/12/02 06:53:56;;;;;;;86.60;38.38;;;;;;;;;;4983075;28;25101;-74
2023/12/02 06:56:22;;;;;;;78.80;37.28;;;;;;;;;;4980354;28;25063;-73
2023/12/02 06:58:49;;;;;;;75.80;35.20;;;;;;;;;;4982444;28;25149;-72
2023/12/02 07:01:29;;;;;;;86.07;37.78;;;;;;;;;;4981147;28;25053;-71
2023/12/02 07:03:55;;;;;;;69.93;34.05;;;;;;;;;;4978873;28;25059;-72
2023/12/02 07:06:21;;;;;;;75.43;35.13;;;;;;;;;;4982582;28;25128;-72
2023/12/02 07:08:48;;;;;;;82.50;36.63;;;;;;;;;;4979984;28;25132;-74
2023/12/02 07:11:14;;;;;;;78.78;37.28;;;;;;;;;;4985821;28;25065;-71
2023/12/02 07:13:40;;;;;;;88.88;39.95;;;;;;;;;;4982273;28;25049;-72
2023/12/02 07:16:07;;;;;;;83.88;38.00;;;;;;;;;;4981879;28;25078;-72
2023/12/02 07:18:33;;;;;;;85.60;37.80;;;;;;;;;;4980539;28;25094;-73
2023/12/02 07:20:59;;;;;;;86.25;37.20;;;;;;;;;;4977015;28;25071;-72
2023/12/02 07:23:31;;;;;;;73.88;37.13;;;;;;;;;;4979132;28;25106;-73
2023/12/02 07:25:57;;;;;;;84.25;38.17;;;;;;;;;;4977217;28;25067;-73
2023/12/02 07:28:23;;;;;;;70.90;36.20;;;;;;;;;;4982852;28;25078;-74
2023/12/02 07:30:49;;;;;;;85.13;38.45;;;;;;;;;;4980349;28;25134;-72
2023/12/02 07:33:15;;;;;;;82.40;37.17;;;;;;;;;;4985297;28;25077;-72
2023/12/02 07:35:42;;;;;;;89.43;39.30;;;;;;;;;;4986642;28;25078;-72
2023/12/02 07:38:08;;;;;;;78.30;36.85;;;;;;;;;;4982202;28;25104;-72
2023/12/02 07:40:35;;;;;;;90.80;39.63;;;;;;;;;;4981987;28;25108;-72
2023/12/02 07:43:01;;;;;;;78.95;37.25;;;;;;;;;;4984943;28;25072;-72
2023/12/02 07:45:27;;;;;;;82.97;38.33;;;;;;;;;;4986328;28;25167;-73
2023/12/02 07:47:53;;;;;;;83.82;38.33;;;;;;;;;;4985469;28;25111;-72
2023/12/02 07:50:19;;;;;;;91.30;41.33;;;;;;;;;;4986748;28;25112;-73
2023/12/02 07:52:45;;;;;;;86.35;38.85;;;;;;;;;;4985966;28;25051;-73
2023/12/02 07:55:12;;;;;;;76.57;37.30;;;;;;;;;;4984913;28;25094;-72
2023/12/02 07:57:38;;;;;;;95.80;42.67;;;;;;;;;;4983051;28;25049;-71
2023/12/02 08:00:04;;;;;;;94.60;41.25;;;;;;;;;;4985300;28;25070;-72
2023/12/02 08:02:30;;;;;;;73.80;36.22;;;;;;;;;;4981202;28;25052;-73
2023/12/02 08:04:57;;;;;;;85.70;38.80;;;;;;;;;;4984918;28;25130;-73
2023/12/02 08:07:23;;;;;;;92.45;41.30;;;;;;;;;;4984688;28;25179;-72
2023/12/02 08:09:49;;;;;;;91.50;39.92;;;;;;;;;;4984349;28;25106;-72
2023/12/02 08:12:15;;;;;;;99.78;43.80;;;;;;;;;;4986602;28;25069;-72
2023/12/02 08:14:41;;;;;;;89.38;41.17;;;;;;;;;;4986063;28;25102;-72
2023/12/02 08:17:07;;;;;;;91.57;39.67;;;;;;;;;;4986115;28;25052;-73
2023/12/02 08:19:33;;;;;;;91.63;40.80;;;;;;;;;;4985827;28;25054;-73
2023/12/02 08:21:59;;;;;;;102.32;42.72;;;;;;;;;;4986627;28;25071;-72
2023/12/02 08:24:25;;;;;;;90.72;40.55;;;;;;;;;;4983776;28;25097;-72
2023/12/02 08:26:52;;;;;;;89.15;41.65;;;;;;;;;;4986017;28;25140;-73
2023/12/02 08:29:17;;;;;;;80.97;41.10;;;;;;;;;;4983627;28;25107;-72
2023/12/02 08:31:43;;;;;;;102.32;44.53;;;;;;;;;;4980515;28;25103;-74
2023/12/02 08:34:09;;;;;;;86.20;41.10;;;;;;;;;;4977863;28;25072;-73
2023/12/02 08:36:35;;;;;;;88.15;41.22;;;;;;;;;;4987061;28;25129;-74
2023/12/02 08:39:04;;;;;;;82.68;37.65;;;;;;;;;;4990184;28;25106;-74
2023/12/02 08:41:31;;;;;;;86.88;41.38;;;;;;;;;;4993130;28;25057;-73
2023/12/02 08:43:57;;;;;;;77.28;36.75;;;;;;;;;;4987290;28;25057;-73
2023/12/02 08:46:23;;;;;;;83.38;39.97;;;;;;;;;;4984073;28;25132;-74
2023/12/02 08:48:48;;;;;;;88.47;41.17;;;;;;;;;;4985567;28;25066;-73
2023/12/02 08:51:14;;;;;;;85.80;40.22;;;;;;;;;;4983127;28;25052;-74
2023/12/02 08:53:40;;;;;;;85.78;40.38;;;;;;;;;;4983704;28;25070;-74
2023/12/02 08:56:07;;;;;;;80.75;39.80;;;;;;;;;;4980468;28;25077;-73
2023/12/02 08:58:33;;;;;;;82.13;37.58;;;;;;;;;;4982899;28;25170;-74
2023/12/02 09:00:59;;;;;;;84.18;39.85;;;;;;;;;;4980591;28;25092;-74
2023/12/02 09:03:25;;;;;;;81.63;38.95;;;;;;;;;;4982990;28;25083;-74
2023/12/02 09:05:54;;;;;;;90.97;42.45;;;;;;;;;;4981401;28;25072;-74
2023/12/02 09:08:20;;;;;;;88.47;40.05;;;;;;;;;;4981400;28;25086;-74
2023/12/02 09:10:46;;;;;;;76.43;36.60;;;;;;;;;;4985238;28;25060;-73
2023/12/02 09:13:24;;;;;;;76.60;36.80;;;;;;;;;;4992611;28;25057;-74
2023/12/02 09:15:50;;;;;;;81.03;38.13;;;;;;;;;;4996055;28;25045;-75
2023/12/02 09:18:27;;;;;;;80.22;38.08;;;;;;;;;;4993702;28;25045;-74
2023/12/02 09:20:55;;;;;;;76.35;36.95;;;;;;;;;;4987032;28;25057;-74
2023/12/02 09:23:21;;;;;;;79.88;39.03;;;;;;;;;;4985170;28;25066;-74
2023/12/02 09:25:48;;;;;;;73.43;36.85;;;;;;;;;;4992470;28;25062;-75
2023/12/02 09:28:15;;;;;;;81.90;37.75;;;;;;;;;;4985299;28;25077;-75
2023/12/02 09:30:44;;;;;;;76.53;37.33;;;;;;;;;;4992179;28;25058;-74
2023/12/02 09:33:10;;;;;;;80.53;38.25;;;;;;;;;;4979793;28;25072;-74
2023/12/02 09:35:35;;;;;;;68.82;35.70;;;;;;;;;;4988124;28;25096;-74
2023/12/02 09:38:02;;;;;;;79.78;37.83;;;;;;;;;;4978678;28;25068;-73
2023/12/02 09:40:47;;;;;;;75.35;34.97;;;;;;;;;;4985805;28;25066;-75
2023/12/02 09:43:32;;;;;;;82.40;37.03;;;;;;;;;;4991739;28;25096;-74
2023/12/02 09:46:06;;;;;;;78.60;36.10;;;;;;;;;;4996958;28;25154;-74
2023/12/02 09:48:34;;;;;;;87.38;38.92;;;;;;;;;;4994550;28;25069;-74
2023/12/02 09:51:19;;;;;;;75.93;35.35;;;;;;;;;;4992273;28;25063;-73
2023/12/02 09:54:00;;;;;;;79.65;39.63;;;;;;;;;;4989408;28;25085;-72
2023/12/02 09:56:30;;;;;;;81.40;37.22;;;;;;;;;;4990380;28;25082;-73
2023/12/02 09:59:04;;;;;;;75.70;36.60;;;;;;;;;;4987043;28;25147;-73
2023/12/02 10:01:43;;;;;;;61.28;33.35;;;;;;;;;;4985290;28;25096;-74
2023/12/02 10:04:09;;;;;;;77.93;38.80;;;;;;;;;;4983633;28;25058;-74
2023/12/02 10:06:47;;;;;;;77.75;36.60;;;;;;;;;;4990130;28;25141;-75
2023/12/02 10:09:32;;;;;;;77.85;38.65;;;;;;;;;;4991936;28;25070;-73
2023/12/02 10:12:17;;;;;;;77.30;37.33;;;;;;;;;;4990188;28;25095;-73
2023/12/02 10:14:45;;;;;;;70.75;33.92;;;;;;;;;;4983195;28;25060;-73
2023/12/02 10:17:12;;;;;;;72.15;35.55;;;;;;;;;;4986979;28;25149;-74
2023/12/02 10:19:38;;;;;;;77.70;37.67;;;;;;;;;;4989242;28;25071;-74
2023/12/02 10:22:05;;;;;;;77.90;37.03;;;;;;;;;;4987475;28;25085;-75
2023/12/02 10:24:57;;;;;;;67.38;34.30;;;;;;;;;;4988949;28;25064;-73
2023/12/02 10:27:25;;;;;;;71.88;33.75;;;;;;;;;;4983097;28;25120;-73
2023/12/02 10:30:09;;;;;;;65.20;33.15;;;;;;;;;;4987387;28;25166;-75
2023/12/02 10:32:50;;;;;;;66.75;36.03;;;;;;;;;;4984168;28;25050;-76
2023/12/02 10:35:32;;;;;;;75.45;37.10;;;;;;;;;;4988245;28;25059;-75
2023/12/02 10:38:05;;;;;;;69.18;33.83;;;;;;;;;;4984258;28;25075;-73
2023/12/02 10:40:35;;;;;;;69.25;35.53;;;;;;;;;;4987504;28;25082;-74
2023/12/02 10:43:18;;;;;;;72.85;36.10;;;;;;;;;;4984985;28;25075;-75
2023/12/02 10:45:44;;;;;;;;;;;;;;;;;;4986763;28;25057;-74
2023/12/02 10:48:12;;;;;;;71.45;34.35;;;;;;;;;;4988117;28;24082;-74
2023/12/02 10:50:40;;;;;;;71.60;35.50;;;;;;;;;;4986618;28;25127;-74
2023/12/02 10:53:06;;;;;;;73.20;35.15;;;;;;;;;;4985337;28;25049;-74
2023/12/02 10:55:34;;;;;;;71.00;33.72;;;;;;;;;;4987803;28;25132;-74
2023/12/02 10:58:03;;;;;;;69.10;35.20;;;;;;;;;;4987038;28;25062;-74
2023/12/02 11:00:30;;;;;;;73.15;36.67;;;;;;;;;;4988995;28;25143;-73
2023/12/02 11:03:11;;;;;;;74.50;36.72;;;;;;;;;;4983545;28;25129;-74
2023/12/02 11:06:00;;;;;;;73.25;36.53;;;;;;;;;;4999767;28;25061;-73
2023/12/02 11:08:41;;;;;;;75.32;35.80;;;;;;;;;;4984786;28;25088;-72
2023/12/02 11:11:09;;;;;;;73.53;36.75;;;;;;;;;;4981119;28;25056;-73
2023/12/02 11:13:35;;;;;;;75.07;37.30;;;;;;;;;;4984479;28;25059;-74
2023/12/02 11:16:20;;;;;;;76.90;36.28;;;;;;;;;;4990284;28;25051;-75
2023/12/02 11:18:48;;;;;;;68.10;33.45;;;;;;;;;;4990143;28;25061;-74
2023/12/02 11:21:47;;;;;;;74.68;36.70;;;;;;;;;;4991107;28;25060;-74
2023/12/02 11:24:31;;;;;;;69.00;35.80;;;;;;;;;;4948208;28;25080;-73
2023/12/02 11:27:16;;;;;;;67.75;35.97;;;;;;;;;;4987335;28;25064;-75
2023/12/02 11:29:50;;;;;;;75.00;37.35;;;;;;;;;;4988886;28;25074;-74
2023/12/02 11:32:21;;;;;;;63.22;35.53;;;;;;;;;;4985806;28;25095;-74
2023/12/02 11:34:57;;;;;;;64.47;35.25;;;;;;;;;;4984663;28;25099;-74
2023/12/02 11:37:25;;;;;;;68.35;35.17;;;;;;;;;;4988393;28;25130;-74
2023/12/02 11:40:09;;;;;;;65.07;35.72;;;;;;;;;;4985520;28;25071;-74
2023/12/02 11:42:46;;;;;;;69.55;35.72;;;;;;;;;;4981731;28;25116;-74
2023/12/02 11:45:22;;;;;;;70.85;36.40;;;;;;;;;;4984568;28;25083;-75
2023/12/02 11:48:00;;;;;;;68.03;34.95;;;;;;;;;;4987516;28;25100;-74
2023/12/02 11:50:26;;;;;;;65.70;34.25;;;;;;;;;;4977419;28;25145;-74
2023/12/02 11:53:11;;;;;;;72.47;37.22;;;;;;;;;;4989931;28;25085;-76
2023/12/02 11:55:44;;;;;;;68.13;34.20;;;;;;;;;;4993703;28;25061;-76
2023/12/02 11:58:10;;;;;;;65.65;35.45;;;;;;;;;;5002413;28;25076;-75
2023/12/02 12:00:50;;;;;;;68.75;35.47;;;;;;;;;;5003667;28;25081;-74
2023/12/02 12:03:27;;;;;;;69.75;34.72;;;;;;;;;;4981052;28;25045;-74
2023/12/02 12:06:02;;;;;;;62.72;34.65;;;;;;;;;;4986624;28;25158;-74
2023/12/02 12:08:36;;;;;;;67.60;36.85;;;;;;;;;;4982146;28;25054;-73
2023/12/02 12:11:03;;;;;;;77.50;38.33;;;;;;;;;;4983520;28;25158;-74
2023/12/02 12:13:31;;;;;;;71.63;37.05;;;;;;;;;;4981642;28;25050;-75
2023/12/02 12:15:57;;;;;;;71.57;35.60;;;;;;;;;;4982756;28;25073;-75
2023/12/02 12:18:23;;;;;;;70.57;34.70;;;;;;;;;;4986896;28;25083;-75
2023/12/02 12:20:55;;;;;;;72.35;36.63;;;;;;;;;;4985546;28;25073;-77
2023/12/02 12:23:23;;;;;;;72.38;37.88;;;;;;;;;;4986748;28;25074;-74
2023/12/02 12:25:49;;;;;;;73.97;37.85;;;;;;;;;;4985438;28;25074;-74
2023/12/02 12:28:14;;;;;;;81.75;40.55;;;;;;;;;;4987093;28;25074;-74
2023/12/02 12:30:44;;;;;;;78.40;39.58;;;;;;;;;;4979081;28;25072;-75
2023/12/02 12:33:12;;;;;;;76.03;38.85;;;;;;;;;;4986926;28;25064;-74
2023/12/02 12:35:38;;;;;;;74.70;38.92;;;;;;;;;;4975413;28;25070;-74
2023/12/02 12:38:05;;;;;;;80.53;39.70;;;;;;;;;;4976695;28;25077;-76
2023/12/02 12:40:32;;;;;;;86.35;41.17;;;;;;;;;;4976818;28;25065;-76
2023/12/02 12:42:59;;;;;;;92.93;45.30;;;;;;;;;;4979685;28;25041;-75
2023/12/02 12:45:25;;;;;;;91.25;44.38;;;;;;;;;;4987389;28;25111;-75
2023/12/02 12:47:51;;;;;;;101.18;47.05;;;;;;;;;;4976169;28;25168;-74
2023/12/02 12:50:21;;;;;;;102.80;49.00;;;;;;;;;;4985425;28;25047;-75
2023/12/02 12:52:51;;;;;;;94.97;46.67;;;;;;;;;;4972537;28;25071;-76
2023/12/02 12:55:21;;;;;;;100.80;50.13;;;;;;;;;;4984422;28;25114;-74
2023/12/02 12:57:52;;;;;;;111.57;52.13;;;;;;;;;;4989540;28;25041;-75
2023/12/02 13:00:19;;;;;;;106.90;51.00;;;;;;;;;;4989775;28;25058;-73
2023/12/02 13:03:08;;;;;;;102.40;50.85;;;;;;;;;;4988454;28;25097;-77
2023/12/02 13:05:39;;;;;;;105.40;48.25;;;;;;;;;;4984045;28;25057;-73
2023/12/02 13:08:08;;;;;;;99.40;48.47;;;;;;;;;;4994895;28;25072;-77
2023/12/02 13:10:35;;;;;;;96.18;46.83;;;;;;;;;;5002980;28;25074;-76
2023/12/02 13:13:02;;;;;;;96.75;47.35;;;;;;;;;;4999778;28;25141;-75
2023/12/02 13:15:29;;;;;;;87.68;43.92;;;;;;;;;;4991811;28;25060;-77
2023/12/02 13:17:55;;;;;;;90.53;45.20;;;;;;;;;;4993487;28;25093;-76
2023/12/02 13:20:22;;;;;;;82.22;41.53;;;;;;;;;;4994495;28;25065;-74
2023/12/02 13:22:50;;;;;;;86.93;45.53;;;;;;;;;;4986542;28;25067;-76
2023/12/02 13:25:19;;;;;;;92.70;45.17;;;;;;;;;;4979040;28;25060;-76
2023/12/02 13:27:53;;;;;;;80.15;40.33;;;;;;;;;;4991820;28;25049;-75
2023/12/02 13:30:20;;;;;;;91.72;41.25;;;;;;;;;;4990493;28;25058;-77
2023/12/02 13:32:48;;;;;;;96.05;43.42;;;;;;;;;;4993757;28;25069;-76
2023/12/02 13:35:15;;;;;;;82.65;41.33;;;;;;;;;;4992630;28;25056;-76
2023/12/02 13:37:45;;;;;;;84.43;41.83;;;;;;;;;;4985909;28;25168;-75
2023/12/02 13:40:14;;;;;;;80.50;41.60;;;;;;;;;;4995061;28;25055;-77
2023/12/02 13:42:40;;;;;;;73.03;39.22;;;;;;;;;;4992295;28;25067;-77
2023/12/02 13:45:09;;;;;;;80.88;42.72;;;;;;;;;;4985877;28;25142;-77
2023/12/02 13:47:37;;;;;;;72.85;38.70;;;;;;;;;;4994704;28;25057;-76
2023/12/02 13:50:04;;;;;;;85.38;39.55;;;;;;;;;;5002932;28;25111;-75
2023/12/02 13:52:38;;;;;;;76.32;39.80;;;;;;;;;;5008675;28;25052;-77
2023/12/02 13:55:20;;;;;;;80.30;39.15;;;;;;;;;;5005662;28;25109;-75
2023/12/02 13:57:59;;;;;;;81.00;41.30;;;;;;;;;;5004412;28;25108;-78
2023/12/02 14:00:31;;;;;;;78.13;40.17;;;;;;;;;;4996535;28;25065;-79
2023/12/02 14:03:17;;;;;;;76.70;39.72;;;;;;;;;;5004872;28;25069;-74
2023/12/02 14:05:52;;;;;;;71.00;38.33;;;;;;;;;;4940607;28;25069;-75
2023/12/02 14:08:21;;;;;;;72.95;37.08;;;;;;;;;;4986089;28;25132;-75
2023/12/02 14:10:48;;;;;;;71.72;37.13;;;;;;;;;;4985604;28;25081;-75
2023/12/02 14:13:19;;;;;;;74.55;37.33;;;;;;;;;;4991086;28;25120;-75
2023/12/02 14:16:04;;;;;;;65.70;35.13;;;;;;;;;;4985179;28;25070;-76
2023/12/02 14:18:49;;;;;;;64.65;32.75;;;;;;;;;;4987601;28;25150;-76
2023/12/02 14:21:26;;;;;;;65.22;34.00;;;;;;;;;;4988575;28;25064;-75
2023/12/02 14:23:55;;;;;;;64.20;33.20;;;;;;;;;;4988973;28;25187;-75
2023/12/02 14:26:37;;;;;;;61.85;31.35;;;;;;;;;;4988280;28;25079;-80